sensor_id;sensor_type;location;lat;lon;timestamp;P1;durP1;ratioP1;P2;durP2;ratioP2
24151;SDS011;12311;50.866;4.332;2023-02-15T00:01:16;45.10;;;16.95;;
24151;SDS011;12311;50.866;4.332;2023-02-15T00:03:42;38.90;;;16.35;;
24151;SDS011;12311;50.866;4.332;2023-02-15T00:06:08;46.28;;;14.70;;
24151;SDS011;12311;50.866;4.332;2023-02-15T00:08:33;35.50;;;15.90;;
24151;SDS011;12311;50.866;4.332;2023-02-15T00:11:18;42.58;;;16.48;;
24151;SDS011;12311;50.866;4.332;2023-02-15T00:14:03;37.10;;;13.30;;
24151;SDS011;12311;50.866;4.332;2023-02-15T00:16:30;41.90;;;14.45;;
24151;SDS011;12311;50.866;4.332;2023-02-15T00:18:55;38.83;;;15.25;;
24151;SDS011;12311;50.866;4.332;2023-02-15T00:21:21;42.80;;;16.05;;
24151;SDS011;12311;50.866;4.332;2023-02-15T00:23:47;38.58;;;13.93;;
24151;SDS011;12311;50.866;4.332;2023-02-15T00:26:12;39.92;;;13.25;;
24151;SDS011;12311;50.866;4.332;2023-02-15T00:28:38;33.85;;;13.57;;
24151;SDS011;12311;50.866;4.332;2023-02-15T00:31:10;40.50;;;14.82;;
24151;SDS011;12311;50.866;4.332;2023-02-15T00:33:37;35.97;;;12.75;;
24151;SDS011;12311;50.866;4.332;2023-02-15T00:36:04;35.90;;;13.82;;
24151;SDS011;12311;50.866;4.332;2023-02-15T00:38:32;39.17;;;15.52;;
24151;SDS011;12311;50.866;4.332;2023-02-15T00:40:59;25.77;;;13.23;;
24151;SDS011;12311;50.866;4.332;2023-02-15T00:43:26;35.75;;;14.63;;
24151;SDS011;12311;50.866;4.332;2023-02-15T00:45:53;29.60;;;13.10;;
24151;SDS011;12311;50.866;4.332;2023-02-15T00:48:18;30.48;;;14.07;;
24151;SDS011;12311;50.866;4.332;2023-02-15T00:50:45;34.85;;;15.25;;
24151;SDS011;12311;50.866;4.332;2023-02-15T00:53:15;44.13;;;14.57;;
24151;SDS011;12311;50.866;4.332;2023-02-15T00:55:41;36.53;;;14.57;;
24151;SDS011;12311;50.866;4.332;2023-02-15T00:58:07;32.05;;;13.90;;
24151;SDS011;12311;50.866;4.332;2023-02-15T01:00:34;36.20;;;14.20;;
24151;SDS011;12311;50.866;4.332;2023-02-15T01:03:00;38.40;;;12.90;;
24151;SDS011;12311;50.866;4.332;2023-02-15T01:05:26;34.88;;;14.27;;
24151;SDS011;12311;50.866;4.332;2023-02-15T01:07:52;36.63;;;13.88;;
24151;SDS011;12311;50.866;4.332;2023-02-15T01:10:18;37.90;;;13.23;;
24151;SDS011;12311;50.866;4.332;2023-02-15T01:12:43;35.72;;;13.65;;
24151;SDS011;12311;50.866;4.332;2023-02-15T01:15:09;35.85;;;13.90;;
24151;SDS011;12311;50.866;4.332;2023-02-15T01:17:35;34.70;;;12.68;;
24151;SDS011;12311;50.866;4.332;2023-02-15T01:20:00;33.33;;;11.98;;
24151;SDS011;12311;50.866;4.332;2023-02-15T01:22:26;33.25;;;14.02;;
24151;SDS011;12311;50.866;4.332;2023-02-15T01:24:52;31.77;;;11.50;;
24151;SDS011;12311;50.866;4.332;2023-02-15T01:27:18;39.33;;;13.27;;
24151;SDS011;12311;50.866;4.332;2023-02-15T01:29:43;36.35;;;13.40;;
24151;SDS011;12311;50.866;4.332;2023-02-15T01:32:09;28.38;;;13.23;;
24151;SDS011;12311;50.866;4.332;2023-02-15T01:34:35;29.40;;;12.75;;
24151;SDS011;12311;50.866;4.332;2023-02-15T01:37:01;26.40;;;12.07;;
24151;SDS011;12311;50.866;4.332;2023-02-15T01:39:26;24.10;;;11.65;;
24151;SDS011;12311;50.866;4.332;2023-02-15T01:41:52;27.52;;;11.65;;
24151;SDS011;12311;50.866;4.332;2023-02-15T01:47:11;32.67;;;13.38;;
24151;SDS011;12311;50.866;4.332;2023-02-15T01:49:40;36.35;;;12.27;;
24151;SDS011;12311;50.866;4.332;2023-02-15T01:52:08;27.42;;;12.35;;
24151;SDS011;12311;50.866;4.332;2023-02-15T01:54:36;33.75;;;13.95;;
24151;SDS011;12311;50.866;4.332;2023-02-15T01:57:11;26.70;;;11.82;;
24151;SDS011;12311;50.866;4.332;2023-02-15T01:59:41;39.47;;;12.88;;
24151;SDS011;12311;50.866;4.332;2023-02-15T02:02:11;28.30;;;12.18;;
24151;SDS011;12311;50.866;4.332;2023-02-15T02:07:17;22.13;;;10.77;;
24151;SDS011;12311;50.866;4.332;2023-02-15T02:09:45;34.88;;;14.63;;
24151;SDS011;12311;50.866;4.332;2023-02-15T02:12:12;22.63;;;11.07;;
24151;SDS011;12311;50.866;4.332;2023-02-15T02:14:38;28.38;;;11.82;;
24151;SDS011;12311;50.866;4.332;2023-02-15T02:17:07;28.63;;;12.98;;
24151;SDS011;12311;50.866;4.332;2023-02-15T02:19:58;36.58;;;12.50;;
24151;SDS011;12311;50.866;4.332;2023-02-15T02:41:42;29.38;;;12.63;;
24151;SDS011;12311;50.866;4.332;2023-02-15T02:49:29;31.52;;;11.70;;
24151;SDS011;12311;50.866;4.332;2023-02-15T02:52:01;36.85;;;14.05;;
24151;SDS011;12311;50.866;4.332;2023-02-15T02:54:30;32.60;;;12.40;;
24151;SDS011;12311;50.866;4.332;2023-02-15T02:56:58;28.05;;;12.88;;
24151;SDS011;12311;50.866;4.332;2023-02-15T02:59:27;26.88;;;11.75;;
24151;SDS011;12311;50.866;4.332;2023-02-15T03:04:37;27.08;;;12.82;;
24151;SDS011;12311;50.866;4.332;2023-02-15T03:07:11;30.65;;;11.70;;
24151;SDS011;12311;50.866;4.332;2023-02-15T03:09:47;37.17;;;13.60;;
24151;SDS011;12311;50.866;4.332;2023-02-15T03:12:16;34.40;;;12.65;;
24151;SDS011;12311;50.866;4.332;2023-02-15T03:14:47;33.17;;;12.70;;
24151;SDS011;12311;50.866;4.332;2023-02-15T03:17:17;34.35;;;14.32;;
24151;SDS011;12311;50.866;4.332;2023-02-15T03:19:46;28.98;;;11.75;;
24151;SDS011;12311;50.866;4.332;2023-02-15T03:27:33;29.63;;;11.93;;
24151;SDS011;12311;50.866;4.332;2023-02-15T03:32:31;28.35;;;12.15;;
24151;SDS011;12311;50.866;4.332;2023-02-15T03:34:59;30.10;;;12.90;;
24151;SDS011;12311;50.866;4.332;2023-02-15T03:40:39;31.05;;;11.95;;
24151;SDS011;12311;50.866;4.332;2023-02-15T03:45:51;25.33;;;11.95;;
24151;SDS011;12311;50.866;4.332;2023-02-15T03:48:38;21.02;;;10.98;;
24151;SDS011;12311;50.866;4.332;2023-02-15T03:51:14;30.05;;;12.60;;
24151;SDS011;12311;50.866;4.332;2023-02-15T03:54:03;27.83;;;11.98;;
24151;SDS011;12311;50.866;4.332;2023-02-15T03:56:37;29.33;;;13.30;;
24151;SDS011;12311;50.866;4.332;2023-02-15T03:59:06;35.85;;;12.05;;
24151;SDS011;12311;50.866;4.332;2023-02-15T04:04:50;35.35;;;12.98;;
24151;SDS011;12311;50.866;4.332;2023-02-15T04:07:16;31.58;;;14.18;;
24151;SDS011;12311;50.866;4.332;2023-02-15T04:09:42;33.83;;;13.57;;
24151;SDS011;12311;50.866;4.332;2023-02-15T04:12:45;43.60;;;14.02;;
24151;SDS011;12311;50.866;4.332;2023-02-15T04:15:11;30.20;;;12.65;;
24151;SDS011;12311;50.866;4.332;2023-02-15T04:17:56;35.67;;;13.85;;
24151;SDS011;12311;50.866;4.332;2023-02-15T04:20:22;36.42;;;12.80;;
24151;SDS011;12311;50.866;4.332;2023-02-15T04:23:06;34.47;;;12.18;;
24151;SDS011;12311;50.866;4.332;2023-02-15T04:25:51;36.13;;;12.52;;
24151;SDS011;12311;50.866;4.332;2023-02-15T04:28:16;37.38;;;12.40;;
24151;SDS011;12311;50.866;4.332;2023-02-15T04:30:42;29.40;;;12.25;;
24151;SDS011;12311;50.866;4.332;2023-02-15T04:33:08;26.42;;;12.23;;
24151;SDS011;12311;50.866;4.332;2023-02-15T04:35:34;24.27;;;11.77;;
24151;SDS011;12311;50.866;4.332;2023-02-15T04:37:59;37.75;;;13.13;;
24151;SDS011;12311;50.866;4.332;2023-02-15T04:40:25;29.17;;;11.93;;
24151;SDS011;12311;50.866;4.332;2023-02-15T04:42:51;25.77;;;11.32;;
24151;SDS011;12311;50.866;4.332;2023-02-15T04:45:16;24.48;;;11.32;;
24151;SDS011;12311;50.866;4.332;2023-02-15T04:47:42;27.17;;;10.20;;
24151;SDS011;12311;50.866;4.332;2023-02-15T04:50:08;23.00;;;10.85;;
24151;SDS011;12311;50.866;4.332;2023-02-15T04:52:34;25.90;;;10.38;;
24151;SDS011;12311;50.866;4.332;2023-02-15T04:55:00;32.60;;;11.73;;
24151;SDS011;12311;50.866;4.332;2023-02-15T04:57:26;23.08;;;9.68;;
24151;SDS011;12311;50.866;4.332;2023-02-15T04:59:51;23.05;;;9.85;;
24151;SDS011;12311;50.866;4.332;2023-02-15T05:02:17;23.08;;;10.07;;
24151;SDS011;12311;50.866;4.332;2023-02-15T05:04:43;30.60;;;11.07;;
24151;SDS011;12311;50.866;4.332;2023-02-15T05:07:08;29.52;;;11.15;;
24151;SDS011;12311;50.866;4.332;2023-02-15T05:09:34;25.50;;;12.93;;
24151;SDS011;12311;50.866;4.332;2023-02-15T05:12:00;25.52;;;10.00;;
24151;SDS011;12311;50.866;4.332;2023-02-15T05:14:25;26.40;;;10.57;;
24151;SDS011;12311;50.866;4.332;2023-02-15T05:16:51;29.58;;;11.60;;
24151;SDS011;12311;50.866;4.332;2023-02-15T05:19:18;23.50;;;9.73;;
24151;SDS011;12311;50.866;4.332;2023-02-15T05:21:44;27.00;;;8.98;;
24151;SDS011;12311;50.866;4.332;2023-02-15T05:24:10;18.80;;;9.05;;
24151;SDS011;12311;50.866;4.332;2023-02-15T05:26:54;19.42;;;10.43;;
24151;SDS011;12311;50.866;4.332;2023-02-15T05:29:38;29.80;;;9.65;;
24151;SDS011;12311;50.866;4.332;2023-02-15T05:32:04;28.45;;;10.60;;
24151;SDS011;12311;50.866;4.332;2023-02-15T05:34:29;20.80;;;10.15;;
24151;SDS011;12311;50.866;4.332;2023-02-15T05:36:55;33.88;;;11.60;;
24151;SDS011;12311;50.866;4.332;2023-02-15T05:39:21;21.38;;;10.48;;
24151;SDS011;12311;50.866;4.332;2023-02-15T05:41:46;22.58;;;11.63;;
24151;SDS011;12311;50.866;4.332;2023-02-15T05:44:12;23.40;;;9.43;;
24151;SDS011;12311;50.866;4.332;2023-02-15T05:46:37;32.35;;;12.95;;
24151;SDS011;12311;50.866;4.332;2023-02-15T05:49:03;36.15;;;9.98;;
24151;SDS011;12311;50.866;4.332;2023-02-15T05:51:29;21.58;;;9.10;;
24151;SDS011;12311;50.866;4.332;2023-02-15T05:53:54;26.08;;;9.85;;
24151;SDS011;12311;50.866;4.332;2023-02-15T05:56:20;29.58;;;10.80;;
24151;SDS011;12311;50.866;4.332;2023-02-15T05:58:46;31.13;;;10.18;;
24151;SDS011;12311;50.866;4.332;2023-02-15T06:01:15;26.73;;;10.00;;
24151;SDS011;12311;50.866;4.332;2023-02-15T06:03:43;24.23;;;10.55;;
24151;SDS011;12311;50.866;4.332;2023-02-15T06:06:10;23.77;;;10.35;;
24151;SDS011;12311;50.866;4.332;2023-02-15T06:08:36;27.38;;;11.38;;
24151;SDS011;12311;50.866;4.332;2023-02-15T06:11:03;31.10;;;11.38;;
24151;SDS011;12311;50.866;4.332;2023-02-15T06:13:29;25.73;;;9.98;;
24151;SDS011;12311;50.866;4.332;2023-02-15T06:15:55;27.50;;;13.48;;
24151;SDS011;12311;50.866;4.332;2023-02-15T06:18:21;27.02;;;10.10;;
24151;SDS011;12311;50.866;4.332;2023-02-15T06:20:47;25.33;;;10.00;;
24151;SDS011;12311;50.866;4.332;2023-02-15T06:23:13;19.85;;;10.73;;
24151;SDS011;12311;50.866;4.332;2023-02-15T06:25:39;21.58;;;10.82;;
24151;SDS011;12311;50.866;4.332;2023-02-15T06:28:05;18.60;;;9.57;;
24151;SDS011;12311;50.866;4.332;2023-02-15T06:30:31;23.80;;;11.45;;
24151;SDS011;12311;50.866;4.332;2023-02-15T06:32:57;22.83;;;9.85;;
24151;SDS011;12311;50.866;4.332;2023-02-15T06:35:23;24.33;;;10.73;;
24151;SDS011;12311;50.866;4.332;2023-02-15T06:37:49;40.15;;;10.55;;
24151;SDS011;12311;50.866;4.332;2023-02-15T06:40:15;26.08;;;10.98;;
24151;SDS011;12311;50.866;4.332;2023-02-15T06:42:41;28.55;;;9.88;;
24151;SDS011;12311;50.866;4.332;2023-02-15T06:45:07;42.33;;;13.73;;
24151;SDS011;12311;50.866;4.332;2023-02-15T06:47:34;27.95;;;11.25;;
24151;SDS011;12311;50.866;4.332;2023-02-15T06:50:00;21.80;;;10.77;;
24151;SDS011;12311;50.866;4.332;2023-02-15T06:52:25;27.63;;;13.38;;
24151;SDS011;12311;50.866;4.332;2023-02-15T06:54:51;36.13;;;11.23;;
24151;SDS011;12311;50.866;4.332;2023-02-15T06:57:17;34.22;;;10.23;;
24151;SDS011;12311;50.866;4.332;2023-02-15T06:59:42;28.63;;;9.65;;
24151;SDS011;12311;50.866;4.332;2023-02-15T07:02:09;23.70;;;10.98;;
24151;SDS011;12311;50.866;4.332;2023-02-15T07:04:39;29.40;;;11.00;;
24151;SDS011;12311;50.866;4.332;2023-02-15T07:07:07;26.42;;;10.43;;
24151;SDS011;12311;50.866;4.332;2023-02-15T07:09:35;28.10;;;10.40;;
24151;SDS011;12311;50.866;4.332;2023-02-15T07:12:01;19.10;;;9.43;;
24151;SDS011;12311;50.866;4.332;2023-02-15T07:14:46;20.58;;;9.52;;
24151;SDS011;12311;50.866;4.332;2023-02-15T07:17:11;29.52;;;10.30;;
24151;SDS011;12311;50.866;4.332;2023-02-15T07:19:37;26.25;;;9.98;;
24151;SDS011;12311;50.866;4.332;2023-02-15T07:22:03;28.42;;;10.25;;
24151;SDS011;12311;50.866;4.332;2023-02-15T07:24:29;23.60;;;9.73;;
24151;SDS011;12311;50.866;4.332;2023-02-15T07:26:55;38.90;;;11.20;;
24151;SDS011;12311;50.866;4.332;2023-02-15T07:29:22;22.50;;;9.95;;
24151;SDS011;12311;50.866;4.332;2023-02-15T07:31:48;23.83;;;11.70;;
24151;SDS011;12311;50.866;4.332;2023-02-15T07:34:14;30.80;;;11.57;;
24151;SDS011;12311;50.866;4.332;2023-02-15T07:36:40;27.85;;;11.07;;
24151;SDS011;12311;50.866;4.332;2023-02-15T07:39:06;27.40;;;10.45;;
24151;SDS011;12311;50.866;4.332;2023-02-15T07:41:32;43.30;;;11.18;;
24151;SDS011;12311;50.866;4.332;2023-02-15T07:43:58;27.80;;;10.75;;
24151;SDS011;12311;50.866;4.332;2023-02-15T07:46:24;24.10;;;10.57;;
24151;SDS011;12311;50.866;4.332;2023-02-15T07:48:49;33.33;;;10.73;;
24151;SDS011;12311;50.866;4.332;2023-02-15T07:51:15;23.70;;;10.02;;
24151;SDS011;12311;50.866;4.332;2023-02-15T07:53:41;24.83;;;9.77;;
24151;SDS011;12311;50.866;4.332;2023-02-15T07:56:09;32.97;;;10.70;;
24151;SDS011;12311;50.866;4.332;2023-02-15T07:58:36;23.92;;;9.57;;
24151;SDS011;12311;50.866;4.332;2023-02-15T08:01:20;22.50;;;11.13;;
24151;SDS011;12311;50.866;4.332;2023-02-15T08:03:54;27.98;;;10.27;;
24151;SDS011;12311;50.866;4.332;2023-02-15T08:06:21;31.65;;;10.27;;
24151;SDS011;12311;50.866;4.332;2023-02-15T08:08:48;30.58;;;11.65;;
24151;SDS011;12311;50.866;4.332;2023-02-15T08:11:15;36.90;;;11.70;;
24151;SDS011;12311;50.866;4.332;2023-02-15T08:13:51;27.35;;;11.90;;
24151;SDS011;12311;50.866;4.332;2023-02-15T08:16:22;26.48;;;10.88;;
24151;SDS011;12311;50.866;4.332;2023-02-15T08:18:48;26.55;;;10.60;;
24151;SDS011;12311;50.866;4.332;2023-02-15T08:21:14;29.75;;;10.07;;
24151;SDS011;12311;50.866;4.332;2023-02-15T08:23:40;34.72;;;9.73;;
24151;SDS011;12311;50.866;4.332;2023-02-15T08:26:06;25.95;;;8.57;;
24151;SDS011;12311;50.866;4.332;2023-02-15T08:28:31;26.33;;;8.85;;
24151;SDS011;12311;50.866;4.332;2023-02-15T08:31:07;31.88;;;11.65;;
24151;SDS011;12311;50.866;4.332;2023-02-15T08:33:35;23.27;;;8.05;;
24151;SDS011;12311;50.866;4.332;2023-02-15T08:36:05;26.42;;;9.65;;
24151;SDS011;12311;50.866;4.332;2023-02-15T08:38:32;22.63;;;10.13;;
24151;SDS011;12311;50.866;4.332;2023-02-15T08:41:08;30.98;;;10.90;;
24151;SDS011;12311;50.866;4.332;2023-02-15T08:43:46;29.85;;;11.68;;
24151;SDS011;12311;50.866;4.332;2023-02-15T08:46:15;30.02;;;10.20;;
24151;SDS011;12311;50.866;4.332;2023-02-15T08:48:41;23.77;;;10.27;;
24151;SDS011;12311;50.866;4.332;2023-02-15T08:51:11;29.00;;;11.40;;
24151;SDS011;12311;50.866;4.332;2023-02-15T08:53:41;24.20;;;8.82;;
24151;SDS011;12311;50.866;4.332;2023-02-15T08:56:09;22.58;;;9.30;;
24151;SDS011;12311;50.866;4.332;2023-02-15T08:58:35;26.67;;;8.57;;
24151;SDS011;12311;50.866;4.332;2023-02-15T09:01:07;25.23;;;8.80;;
24151;SDS011;12311;50.866;4.332;2023-02-15T09:03:37;22.73;;;9.77;;
24151;SDS011;12311;50.866;4.332;2023-02-15T09:06:04;23.67;;;9.05;;
24151;SDS011;12311;50.866;4.332;2023-02-15T09:08:30;24.10;;;9.55;;
24151;SDS011;12311;50.866;4.332;2023-02-15T09:11:04;16.40;;;8.00;;
24151;SDS011;12311;50.866;4.332;2023-02-15T09:13:48;20.80;;;8.68;;
24151;SDS011;12311;50.866;4.332;2023-02-15T09:16:20;18.00;;;7.07;;
24151;SDS011;12311;50.866;4.332;2023-02-15T09:18:46;23.48;;;9.15;;
24151;SDS011;12311;50.866;4.332;2023-02-15T09:21:16;29.25;;;9.60;;
24151;SDS011;12311;50.866;4.332;2023-02-15T09:26:11;20.85;;;9.13;;
24151;SDS011;12311;50.866;4.332;2023-02-15T09:28:39;40.17;;;10.43;;
24151;SDS011;12311;50.866;4.332;2023-02-15T09:33:35;20.15;;;7.15;;
24151;SDS011;12311;50.866;4.332;2023-02-15T09:36:03;29.75;;;9.57;;
24151;SDS011;12311;50.866;4.332;2023-02-15T09:38:29;18.45;;;7.57;;
24151;SDS011;12311;50.866;4.332;2023-02-15T09:46:21;33.72;;;10.02;;
24151;SDS011;12311;50.866;4.332;2023-02-15T09:49:17;19.65;;;8.25;;
24151;SDS011;12311;50.866;4.332;2023-02-15T09:52:15;16.63;;;7.38;;
24151;SDS011;12311;50.866;4.332;2023-02-15T09:57:44;26.90;;;9.07;;
24151;SDS011;12311;50.866;4.332;2023-02-15T10:00:35;21.83;;;7.43;;
24151;SDS011;12311;50.866;4.332;2023-02-15T10:08:53;19.13;;;8.50;;
24151;SDS011;12311;50.866;4.332;2023-02-15T10:12:11;23.05;;;8.75;;
24151;SDS011;12311;50.866;4.332;2023-02-15T10:14:27;23.48;;;9.43;;
24151;SDS011;12311;50.866;4.332;2023-02-15T10:25:26;22.35;;;8.13;;
24151;SDS011;12311;50.866;4.332;2023-02-15T10:27:55;24.58;;;9.02;;
24151;SDS011;12311;50.866;4.332;2023-02-15T10:30:34;18.88;;;8.10;;
24151;SDS011;12311;50.866;4.332;2023-02-15T10:44:07;24.50;;;8.18;;
24151;SDS011;12311;50.866;4.332;2023-02-15T10:58:53;21.52;;;7.97;;
24151;SDS011;12311;50.866;4.332;2023-02-15T11:07:06;23.05;;;7.80;;
24151;SDS011;12311;50.866;4.332;2023-02-15T11:09:41;24.63;;;8.73;;
24151;SDS011;12311;50.866;4.332;2023-02-15T11:12:12;18.45;;;7.25;;
24151;SDS011;12311;50.866;4.332;2023-02-15T11:17:35;18.30;;;7.60;;
24151;SDS011;12311;50.866;4.332;2023-02-15T11:22:53;29.85;;;7.85;;
24151;SDS011;12311;50.866;4.332;2023-02-15T11:25:30;28.33;;;8.38;;
24151;SDS011;12311;50.866;4.332;2023-02-15T11:27:57;18.83;;;7.30;;
24151;SDS011;12311;50.866;4.332;2023-02-15T11:30:26;24.00;;;7.50;;
24151;SDS011;12311;50.866;4.332;2023-02-15T11:32:58;20.80;;;7.72;;
24151;SDS011;12311;50.866;4.332;2023-02-15T11:35:36;22.67;;;8.15;;
24151;SDS011;12311;50.866;4.332;2023-02-15T11:38:11;24.85;;;8.50;;
24151;SDS011;12311;50.866;4.332;2023-02-15T11:43:17;22.88;;;8.27;;
24151;SDS011;12311;50.866;4.332;2023-02-15T11:45:48;28.98;;;8.55;;
24151;SDS011;12311;50.866;4.332;2023-02-15T11:48:14;22.95;;;8.75;;
24151;SDS011;12311;50.866;4.332;2023-02-15T11:50:41;22.63;;;8.85;;
24151;SDS011;12311;50.866;4.332;2023-02-15T11:53:15;19.58;;;7.95;;
24151;SDS011;12311;50.866;4.332;2023-02-15T11:55:43;18.00;;;7.47;;
24151;SDS011;12311;50.866;4.332;2023-02-15T12:01:00;19.90;;;7.90;;
24151;SDS011;12311;50.866;4.332;2023-02-15T12:03:47;25.98;;;9.30;;
24151;SDS011;12311;50.866;4.332;2023-02-15T12:06:26;30.85;;;8.90;;
24151;SDS011;12311;50.866;4.332;2023-02-15T12:11:37;22.42;;;9.50;;
24151;SDS011;12311;50.866;4.332;2023-02-15T12:14:05;26.60;;;8.85;;
24151;SDS011;12311;50.866;4.332;2023-02-15T12:16:49;24.67;;;9.43;;
24151;SDS011;12311;50.866;4.332;2023-02-15T12:21:58;22.63;;;8.43;;
24151;SDS011;12311;50.866;4.332;2023-02-15T12:24:28;28.98;;;9.85;;
24151;SDS011;12311;50.866;4.332;2023-02-15T12:27:04;25.40;;;8.50;;
24151;SDS011;12311;50.866;4.332;2023-02-15T12:29:46;25.27;;;8.73;;
24151;SDS011;12311;50.866;4.332;2023-02-15T12:32:17;22.75;;;8.80;;
24151;SDS011;12311;50.866;4.332;2023-02-15T12:34:53;28.23;;;8.98;;
24151;SDS011;12311;50.866;4.332;2023-02-15T12:37:23;27.10;;;9.18;;
24151;SDS011;12311;50.866;4.332;2023-02-15T12:39:53;27.17;;;9.48;;
24151;SDS011;12311;50.866;4.332;2023-02-15T12:45:03;25.33;;;9.32;;
24151;SDS011;12311;50.866;4.332;2023-02-15T12:47:44;23.23;;;8.10;;
24151;SDS011;12311;50.866;4.332;2023-02-15T12:50:14;26.75;;;9.70;;
24151;SDS011;12311;50.866;4.332;2023-02-15T12:52:48;29.17;;;9.70;;
24151;SDS011;12311;50.866;4.332;2023-02-15T12:55:23;29.30;;;11.13;;
24151;SDS011;12311;50.866;4.332;2023-02-15T13:00:43;19.13;;;8.05;;
24151;SDS011;12311;50.866;4.332;2023-02-15T13:03:19;28.50;;;11.07;;
24151;SDS011;12311;50.866;4.332;2023-02-15T13:05:51;19.23;;;9.02;;
24151;SDS011;12311;50.866;4.332;2023-02-15T13:08:33;23.98;;;8.77;;
24151;SDS011;12311;50.866;4.332;2023-02-15T13:11:06;32.63;;;10.65;;
24151;SDS011;12311;50.866;4.332;2023-02-15T13:13:35;25.02;;;8.70;;
24151;SDS011;12311;50.866;4.332;2023-02-15T13:16:15;23.73;;;9.30;;
24151;SDS011;12311;50.866;4.332;2023-02-15T13:18:45;27.27;;;9.65;;
24151;SDS011;12311;50.866;4.332;2023-02-15T13:21:16;28.65;;;9.77;;
24151;SDS011;12311;50.866;4.332;2023-02-15T13:23:51;28.02;;;10.80;;
24151;SDS011;12311;50.866;4.332;2023-02-15T13:26:22;27.38;;;9.70;;
24151;SDS011;12311;50.866;4.332;2023-02-15T13:28:55;28.20;;;10.43;;
24151;SDS011;12311;50.866;4.332;2023-02-15T13:31:26;28.13;;;9.48;;
24151;SDS011;12311;50.866;4.332;2023-02-15T13:36:27;34.67;;;8.60;;
24151;SDS011;12311;50.866;4.332;2023-02-15T13:41:44;20.60;;;7.97;;
24151;SDS011;12311;50.866;4.332;2023-02-15T13:44:18;25.95;;;9.15;;
24151;SDS011;12311;50.866;4.332;2023-02-15T14:01:00;25.08;;;9.27;;
24151;SDS011;12311;50.866;4.332;2023-02-15T14:04:01;26.95;;;10.88;;
24151;SDS011;12311;50.866;4.332;2023-02-15T14:09:40;25.13;;;10.25;;
24151;SDS011;12311;50.866;4.332;2023-02-15T14:31:34;28.67;;;9.82;;
24151;SDS011;12311;50.866;4.332;2023-02-15T14:34:08;29.33;;;10.20;;
24151;SDS011;12311;50.866;4.332;2023-02-15T14:36:52;27.55;;;10.85;;
24151;SDS011;12311;50.866;4.332;2023-02-15T14:39:25;25.92;;;11.73;;
24151;SDS011;12311;50.866;4.332;2023-02-15T14:42:34;35.17;;;10.90;;
24151;SDS011;12311;50.866;4.332;2023-02-15T14:48:12;32.90;;;11.05;;
24151;SDS011;12311;50.866;4.332;2023-02-15T14:50:46;30.45;;;11.18;;
24151;SDS011;12311;50.866;4.332;2023-02-15T14:55:47;29.98;;;11.38;;
24151;SDS011;12311;50.866;4.332;2023-02-15T14:58:33;31.85;;;11.05;;
24151;SDS011;12311;50.866;4.332;2023-02-15T15:01:11;27.95;;;11.32;;
24151;SDS011;12311;50.866;4.332;2023-02-15T15:03:42;32.78;;;10.60;;
24151;SDS011;12311;50.866;4.332;2023-02-15T15:06:57;24.90;;;9.65;;
24151;SDS011;12311;50.866;4.332;2023-02-15T15:11:54;33.47;;;10.82;;
24151;SDS011;12311;50.866;4.332;2023-02-15T15:14:38;32.42;;;11.48;;
24151;SDS011;12311;50.866;4.332;2023-02-15T15:17:12;30.23;;;11.73;;
24151;SDS011;12311;50.866;4.332;2023-02-15T15:22:41;32.85;;;10.65;;
24151;SDS011;12311;50.866;4.332;2023-02-15T15:28:09;35.03;;;11.27;;
24151;SDS011;12311;50.866;4.332;2023-02-15T15:37:17;36.97;;;11.77;;
24151;SDS011;12311;50.866;4.332;2023-02-15T15:48:32;25.50;;;10.77;;
24151;SDS011;12311;50.866;4.332;2023-02-15T15:53:46;34.42;;;11.10;;
24151;SDS011;12311;50.866;4.332;2023-02-15T15:56:20;27.63;;;9.27;;
24151;SDS011;12311;50.866;4.332;2023-02-15T15:59:11;30.75;;;11.55;;
24151;SDS011;12311;50.866;4.332;2023-02-15T16:01:42;28.35;;;11.13;;
24151;SDS011;12311;50.866;4.332;2023-02-15T16:04:29;28.85;;;9.80;;
24151;SDS011;12311;50.866;4.332;2023-02-15T16:06:56;36.92;;;11.90;;
24151;SDS011;12311;50.866;4.332;2023-02-15T16:09:41;27.08;;;10.45;;
24151;SDS011;12311;50.866;4.332;2023-02-15T16:12:24;31.00;;;10.45;;
24151;SDS011;12311;50.866;4.332;2023-02-15T16:14:52;26.27;;;10.40;;
24151;SDS011;12311;50.866;4.332;2023-02-15T16:17:23;28.35;;;10.68;;
24151;SDS011;12311;50.866;4.332;2023-02-15T16:19:51;27.60;;;9.85;;
24151;SDS011;12311;50.866;4.332;2023-02-15T16:22:23;35.75;;;11.65;;
24151;SDS011;12311;50.866;4.332;2023-02-15T16:27:42;19.15;;;8.90;;
24151;SDS011;12311;50.866;4.332;2023-02-15T16:33:04;26.48;;;10.60;;
24151;SDS011;12311;50.866;4.332;2023-02-15T16:35:33;21.52;;;10.90;;
24151;SDS011;12311;50.866;4.332;2023-02-15T16:38:00;26.00;;;10.02;;
24151;SDS011;12311;50.866;4.332;2023-02-15T16:40:28;28.05;;;10.68;;
24151;SDS011;12311;50.866;4.332;2023-02-15T16:42:59;30.13;;;10.30;;
24151;SDS011;12311;50.866;4.332;2023-02-15T16:45:28;32.22;;;9.40;;
24151;SDS011;12311;50.866;4.332;2023-02-15T16:47:57;27.13;;;9.57;;
24151;SDS011;12311;50.866;4.332;2023-02-15T16:50:30;25.08;;;10.77;;
24151;SDS011;12311;50.866;4.332;2023-02-15T16:52:58;24.25;;;8.73;;
24151;SDS011;12311;50.866;4.332;2023-02-15T16:55:31;28.67;;;11.00;;
24151;SDS011;12311;50.866;4.332;2023-02-15T16:58:02;34.20;;;10.98;;
24151;SDS011;12311;50.866;4.332;2023-02-15T17:00:31;24.33;;;8.90;;
24151;SDS011;12311;50.866;4.332;2023-02-15T17:03:05;30.85;;;10.75;;
24151;SDS011;12311;50.866;4.332;2023-02-15T17:05:56;26.85;;;9.45;;
24151;SDS011;12311;50.866;4.332;2023-02-15T17:08:24;32.92;;;12.05;;
24151;SDS011;12311;50.866;4.332;2023-02-15T17:13:24;30.77;;;11.30;;
24151;SDS011;12311;50.866;4.332;2023-02-15T17:18:38;52.15;;;12.10;;
24151;SDS011;12311;50.866;4.332;2023-02-15T17:21:12;33.50;;;11.45;;
24151;SDS011;12311;50.866;4.332;2023-02-15T17:23:47;29.05;;;11.95;;
24151;SDS011;12311;50.866;4.332;2023-02-15T17:26:22;30.92;;;12.73;;
24151;SDS011;12311;50.866;4.332;2023-02-15T17:28:51;37.92;;;11.77;;
24151;SDS011;12311;50.866;4.332;2023-02-15T17:31:21;35.67;;;11.95;;
24151;SDS011;12311;50.866;4.332;2023-02-15T17:33:49;36.28;;;11.00;;
24151;SDS011;12311;50.866;4.332;2023-02-15T17:36:19;36.80;;;11.65;;
24151;SDS011;12311;50.866;4.332;2023-02-15T17:41:25;28.60;;;10.80;;
24151;SDS011;12311;50.866;4.332;2023-02-15T17:43:57;32.13;;;12.40;;
24151;SDS011;12311;50.866;4.332;2023-02-15T17:46:23;32.35;;;12.82;;
24151;SDS011;12311;50.866;4.332;2023-02-15T17:48:50;30.02;;;11.05;;
24151;SDS011;12311;50.866;4.332;2023-02-15T17:51:19;40.55;;;13.57;;
24151;SDS011;12311;50.866;4.332;2023-02-15T17:53:45;34.38;;;12.60;;
24151;SDS011;12311;50.866;4.332;2023-02-15T17:56:31;45.70;;;13.68;;
24151;SDS011;12311;50.866;4.332;2023-02-15T17:58:57;31.95;;;12.57;;
24151;SDS011;12311;50.866;4.332;2023-02-15T18:01:23;34.88;;;13.45;;
24151;SDS011;12311;50.866;4.332;2023-02-15T18:04:08;30.15;;;12.43;;
24151;SDS011;12311;50.866;4.332;2023-02-15T18:06:54;33.80;;;11.10;;
24151;SDS011;12311;50.866;4.332;2023-02-15T18:09:39;30.27;;;12.43;;
24151;SDS011;12311;50.866;4.332;2023-02-15T18:12:27;35.28;;;12.88;;
24151;SDS011;12311;50.866;4.332;2023-02-15T18:15:03;32.53;;;12.88;;
24151;SDS011;12311;50.866;4.332;2023-02-15T18:17:35;35.42;;;12.95;;
24151;SDS011;12311;50.866;4.332;2023-02-15T18:20:33;31.02;;;11.30;;
24151;SDS011;12311;50.866;4.332;2023-02-15T18:22:56;31.17;;;12.23;;